sensor_id;sensor_type;location;lat;lon;timestamp;pressure;altitude;pressure_sealevel;temperature;humidity
15007;BME280;7599;50.748;13.142;2023-10-08T00:02:58;95857.28;;;18.27;55.03
15007;BME280;7599;50.748;13.142;2023-10-08T00:06:08;95847.97;;;18.28;55.05
15007;BME280;7599;50.748;13.142;2023-10-08T00:09:14;95828.00;;;18.17;54.75
15007;BME280;7599;50.748;13.142;2023-10-08T00:12:17;95840.97;;;18.27;54.52
15007;BME280;7599;50.748;13.142;2023-10-08T00:15:20;95836.31;;;18.27;54.38
15007;BME280;7599;50.748;13.142;2023-10-08T00:18:26;95825.28;;;18.17;54.86
15007;BME280;7599;50.748;13.142;2023-10-08T00:21:31;95822.28;;;18.25;54.56
15007;BME280;7599;50.748;13.142;2023-10-08T00:24:36;95810.13;;;18.19;54.74
15007;BME280;7599;50.748;13.142;2023-10-08T00:27:42;95829.31;;;18.26;54.88
15007;BME280;7599;50.748;13.142;2023-10-08T00:30:44;95829.31;;;18.26;55.15
15007;BME280;7599;50.748;13.142;2023-10-08T00:33:49;95819.09;;;18.20;54.71
15007;BME280;7599;50.748;13.142;2023-10-08T00:36:53;95803.19;;;18.22;54.87
15007;BME280;7599;50.748;13.142;2023-10-08T00:39:56;95807.78;;;18.18;55.01
15007;BME280;7599;50.748;13.142;2023-10-08T00:42:59;95822.22;;;18.22;54.71
15007;BME280;7599;50.748;13.142;2023-10-08T00:46:07;95827.75;;;18.25;54.92
15007;BME280;7599;50.748;13.142;2023-10-08T00:49:24;95821.13;;;18.26;54.69
15007;BME280;7599;50.748;13.142;2023-10-08T00:52:38;95796.06;;;18.14;54.55
15007;BME280;7599;50.748;13.142;2023-10-08T00:55:43;95771.84;;;18.05;54.62
15007;BME280;7599;50.748;13.142;2023-10-08T00:58:55;95802.78;;;18.20;54.85
15007;BME280;7599;50.748;13.142;2023-10-08T01:02:00;95805.78;;;18.15;54.96
15007;BME280;7599;50.748;13.142;2023-10-08T01:05:07;95804.69;;;18.19;54.66
15007;BME280;7599;50.748;13.142;2023-10-08T01:08:13;95815.28;;;18.24;54.91
15007;BME280;7599;50.748;13.142;2023-10-08T01:11:22;95811.41;;;18.25;54.82
15007;BME280;7599;50.748;13.142;2023-10-08T01:14:41;95801.19;;;18.19;55.17
15007;BME280;7599;50.748;13.142;2023-10-08T01:17:45;95815.28;;;18.24;55.13
15007;BME280;7599;50.748;13.142;2023-10-08T01:20:50;95804.75;;;18.23;55.51
15007;BME280;7599;50.748;13.142;2023-10-08T01:23:55;95807.06;;;18.21;55.61
15007;BME280;7599;50.748;13.142;2023-10-08T01:27:01;95782.72;;;18.05;55.84
15007;BME280;7599;50.748;13.142;2023-10-08T01:30:07;95813.22;;;18.18;55.86
15007;BME280;7599;50.748;13.142;2023-10-08T01:33:19;95801.03;;;18.08;55.86
15007;BME280;7599;50.748;13.142;2023-10-08T01:36:30;95810.81;;;18.13;56.02
15007;BME280;7599;50.748;13.142;2023-10-08T01:39:35;95814.78;;;18.19;55.87
15007;BME280;7599;50.748;13.142;2023-10-08T01:42:39;95825.31;;;18.20;55.36
15007;BME280;7599;50.748;13.142;2023-10-08T01:45:41;95812.06;;;18.19;55.97
15007;BME280;7599;50.748;13.142;2023-10-08T01:48:44;95815.22;;;18.21;55.85
15007;BME280;7599;50.748;13.142;2023-10-08T01:51:47;95825.28;;;18.17;55.95
15007;BME280;7599;50.748;13.142;2023-10-08T01:54:52;95820.25;;;18.19;55.74
15007;BME280;7599;50.748;13.142;2023-10-08T01:57:56;95823.16;;;18.06;55.97
15007;BME280;7599;50.748;13.142;2023-10-08T02:00:58;95821.66;;;18.09;55.86
15007;BME280;7599;50.748;13.142;2023-10-08T02:04:03;95817.47;;;18.15;55.82
15007;BME280;7599;50.748;13.142;2023-10-08T02:07:06;95805.00;;;18.14;56.11
15007;BME280;7599;50.748;13.142;2023-10-08T02:10:11;95802.72;;;18.16;55.82
15007;BME280;7599;50.748;13.142;2023-10-08T02:13:15;95801.94;;;18.16;55.87
15007;BME280;7599;50.748;13.142;2023-10-08T02:16:18;95796.84;;;18.14;55.80
15007;BME280;7599;50.748;13.142;2023-10-08T02:19:22;95801.81;;;18.08;56.01
15007;BME280;7599;50.748;13.142;2023-10-08T02:22:29;95804.66;;;18.16;55.84
15007;BME280;7599;50.748;13.142;2023-10-08T02:25:33;95819.84;;;18.17;55.77
15007;BME280;7599;50.748;13.142;2023-10-08T02:28:36;95803.69;;;18.04;55.99
15007;BME280;7599;50.748;13.142;2023-10-08T02:31:40;95810.34;;;18.07;56.14
15007;BME280;7599;50.748;13.142;2023-10-08T02:34:43;95831.44;;;18.14;56.09
15007;BME280;7599;50.748;13.142;2023-10-08T02:37:47;95841.06;;;18.07;56.09
15007;BME280;7599;50.748;13.142;2023-10-08T02:40:51;95841.53;;;18.13;56.00
15007;BME280;7599;50.748;13.142;2023-10-08T02:43:58;95825.09;;;18.06;56.13
15007;BME280;7599;50.748;13.142;2023-10-08T02:47:01;95803.56;;;17.97;56.18
15007;BME280;7599;50.748;13.142;2023-10-08T02:50:05;95831.06;;;18.15;56.59
15007;BME280;7599;50.748;13.142;2023-10-08T02:53:09;95830.66;;;18.13;56.04
15007;BME280;7599;50.748;13.142;2023-10-08T02:56:14;95833.78;;;18.15;56.29
15007;BME280;7599;50.748;13.142;2023-10-08T02:59:17;95822.81;;;18.08;56.21
15007;BME280;7599;50.748;13.142;2023-10-08T03:02:23;95834.94;;;18.14;56.53
15007;BME280;7599;50.748;13.142;2023-10-08T03:05:26;95836.03;;;18.09;56.42
15007;BME280;7599;50.748;13.142;2023-10-08T03:08:38;95850.78;;;18.08;56.36
15007;BME280;7599;50.748;13.142;2023-10-08T03:11:44;95834.78;;;18.03;56.71
15007;BME280;7599;50.748;13.142;2023-10-08T03:14:49;95845.28;;;18.05;56.54
15007;BME280;7599;50.748;13.142;2023-10-08T03:18:03;95857.84;;;18.13;56.73
15007;BME280;7599;50.748;13.142;2023-10-08T03:21:12;95864.44;;;18.12;56.42
15007;BME280;7599;50.748;13.142;2023-10-08T03:24:43;95860.16;;;18.11;56.42
15007;BME280;7599;50.748;13.142;2023-10-08T03:27:50;95854.53;;;18.00;56.75
15007;BME280;7599;50.748;13.142;2023-10-08T03:30:56;95900.16;;;18.11;56.95
15007;BME280;7599;50.748;13.142;2023-10-08T03:34:05;95907.06;;;18.04;56.57
15007;BME280;7599;50.748;13.142;2023-10-08T03:37:09;95945.25;;;18.12;56.64
15007;BME280;7599;50.748;13.142;2023-10-08T03:40:20;95947.59;;;18.13;57.03
15007;BME280;7599;50.748;13.142;2023-10-08T03:43:35;95938.53;;;18.05;56.88
15007;BME280;7599;50.748;13.142;2023-10-08T03:46:48;95949.47;;;18.09;57.07
15007;BME280;7599;50.748;13.142;2023-10-08T03:49:50;95954.38;;;18.00;57.08
15007;BME280;7599;50.748;13.142;2023-10-08T03:52:53;95975.91;;;18.08;57.56
15007;BME280;7599;50.748;13.142;2023-10-08T03:55:56;95975.91;;;18.08;56.87
15007;BME280;7599;50.748;13.142;2023-10-08T03:59:03;95983.28;;;18.08;57.55
15007;BME280;7599;50.748;13.142;2023-10-08T04:02:15;95976.75;;;17.93;57.18
15007;BME280;7599;50.748;13.142;2023-10-08T04:05:26;96002.25;;;18.04;57.08
15007;BME280;7599;50.748;13.142;2023-10-08T04:08:45;96015.13;;;18.07;57.09
15007;BME280;7599;50.748;13.142;2023-10-08T04:12:00;96026.41;;;18.09;57.43
15007;BME280;7599;50.748;13.142;2023-10-08T04:15:13;96015.84;;;18.04;56.99
15007;BME280;7599;50.748;13.142;2023-10-08T04:18:18;96002.88;;;17.98;56.93
15007;BME280;7599;50.748;13.142;2023-10-08T04:21:22;96021.69;;;18.06;57.36
15007;BME280;7599;50.748;13.142;2023-10-08T04:24:28;95995.88;;;17.97;57.44
15007;BME280;7599;50.748;13.142;2023-10-08T04:27:36;95994.88;;;18.05;56.96
15007;BME280;7599;50.748;13.142;2023-10-08T04:30:41;96006.03;;;18.00;57.20
15007;BME280;7599;50.748;13.142;2023-10-08T04:33:49;96005.38;;;18.06;57.42
15007;BME280;7599;50.748;13.142;2023-10-08T04:36:52;95994.09;;;18.04;57.03
15007;BME280;7599;50.748;13.142;2023-10-08T04:39:56;95991.22;;;17.97;56.85
15007;BME280;7599;50.748;13.142;2023-10-08T04:43:00;95998.38;;;18.05;56.79
15007;BME280;7599;50.748;13.142;2023-10-08T04:46:05;96011.97;;;18.05;57.27
15007;BME280;7599;50.748;13.142;2023-10-08T04:49:20;96001.69;;;17.95;56.98
15007;BME280;7599;50.748;13.142;2023-10-08T04:52:29;96011.97;;;18.05;56.88
15007;BME280;7599;50.748;13.142;2023-10-08T04:55:35;96010.31;;;18.01;56.98
15007;BME280;7599;50.748;13.142;2023-10-08T04:58:44;96018.16;;;18.02;57.08
15007;BME280;7599;50.748;13.142;2023-10-08T05:01:50;96017.63;;;17.97;57.11
15007;BME280;7599;50.748;13.142;2023-10-08T05:05:14;96019.28;;;18.01;57.00
15007;BME280;7599;50.748;13.142;2023-10-08T05:08:24;96023.50;;;17.99;56.87
15007;BME280;7599;50.748;13.142;2023-10-08T05:11:49;96047.25;;;18.02;56.93
15007;BME280;7599;50.748;13.142;2023-10-08T05:15:07;96058.94;;;18.02;57.33
15007;BME280;7599;50.748;13.142;2023-10-08T05:18:36;96064.31;;;17.99;56.91
15007;BME280;7599;50.748;13.142;2023-10-08T05:22:11;96070.94;;;18.01;57.41
15007;BME280;7599;50.748;13.142;2023-10-08T05:25:31;96082.47;;;18.14;56.89
15007;BME280;7599;50.748;13.142;2023-10-08T05:28:41;96087.63;;;18.39;55.95
15007;BME280;7599;50.748;13.142;2023-10-08T05:32:02;96087.03;;;18.49;56.55
15007;BME280;7599;50.748;13.142;2023-10-08T05:35:29;96101.19;;;18.58;56.75
15007;BME280;7599;50.748;13.142;2023-10-08T05:38:50;96100.88;;;18.63;56.37
15007;BME280;7599;50.748;13.142;2023-10-08T05:42:02;96124.34;;;18.68;56.76
15007;BME280;7599;50.748;13.142;2023-10-08T05:45:14;96120.59;;;18.76;56.48
15007;BME280;7599;50.748;13.142;2023-10-08T05:48:33;96111.00;;;18.82;56.92
15007;BME280;7599;50.748;13.142;2023-10-08T05:51:47;96104.75;;;18.81;56.47
15007;BME280;7599;50.748;13.142;2023-10-08T05:55:12;96118.16;;;18.90;56.70
15007;BME280;7599;50.748;13.142;2023-10-08T05:58:26;96147.81;;;18.95;56.44
15007;BME280;7599;50.748;13.142;2023-10-08T06:01:36;96157.59;;;19.00;56.63
15007;BME280;7599;50.748;13.142;2023-10-08T06:04:43;96159.84;;;18.94;57.03
15007;BME280;7599;50.748;13.142;2023-10-08T06:07:56;96149.84;;;18.79;57.29
15007;BME280;7599;50.748;13.142;2023-10-08T06:11:12;96176.91;;;18.72;57.46
15007;BME280;7599;50.748;13.142;2023-10-08T06:14:28;96183.41;;;18.67;57.64
15007;BME280;7599;50.748;13.142;2023-10-08T06:17:43;96197.31;;;18.62;57.66
15007;BME280;7599;50.748;13.142;2023-10-08T06:21:06;96209.72;;;18.59;57.58
15007;BME280;7599;50.748;13.142;2023-10-08T06:24:11;96214.72;;;18.57;57.44
15007;BME280;7599;50.748;13.142;2023-10-08T06:27:19;96210.00;;;18.54;57.31
15007;BME280;7599;50.748;13.142;2023-10-08T06:30:22;96198.69;;;18.52;57.46
15007;BME280;7599;50.748;13.142;2023-10-08T06:33:26;96196.97;;;18.44;57.23
15007;BME280;7599;50.748;13.142;2023-10-08T06:36:32;96202.41;;;18.44;57.44
15007;BME280;7599;50.748;13.142;2023-10-08T06:39:36;96216.47;;;18.46;57.43
15007;BME280;7599;50.748;13.142;2023-10-08T06:42:49;96219.72;;;18.36;56.94
15007;BME280;7599;50.748;13.142;2023-10-08T06:45:53;96245.59;;;18.46;57.08
15007;BME280;7599;50.748;13.142;2023-10-08T06:49:02;96242.44;;;18.44;56.89
15007;BME280;7599;50.748;13.142;2023-10-08T06:52:07;96242.81;;;18.42;57.34
15007;BME280;7599;50.748;13.142;2023-10-08T06:55:14;96235.78;;;18.41;57.16
15007;BME280;7599;50.748;13.142;2023-10-08T06:58:19;96267.66;;;18.41;57.14
15007;BME280;7599;50.748;13.142;2023-10-08T07:01:22;96251.69;;;18.39;56.83
15007;BME280;7599;50.748;13.142;2023-10-08T07:04:26;96263.91;;;18.29;57.07
15007;BME280;7599;50.748;13.142;2023-10-08T07:07:31;96273.75;;;18.34;57.04
15007;BME280;7599;50.748;13.142;2023-10-08T07:10:37;96270.16;;;18.30;56.91
15007;BME280;7599;50.748;13.142;2023-10-08T07:13:40;96282.19;;;18.29;56.62
15007;BME280;7599;50.748;13.142;2023-10-08T07:16:43;96297.06;;;18.35;56.98
15007;BME280;7599;50.748;13.142;2023-10-08T07:19:49;96293.94;;;18.33;56.80
15007;BME280;7599;50.748;13.142;2023-10-08T07:22:52;96291.03;;;18.26;56.77
15007;BME280;7599;50.748;13.142;2023-10-08T07:25:58;96290.75;;;18.31;57.16
15007;BME280;7599;50.748;13.142;2023-10-08T07:29:13;96290.34;;;18.29;56.98
15007;BME280;7599;50.748;13.142;2023-10-08T07:32:18;96293.69;;;18.22;56.54
15007;BME280;7599;50.748;13.142;2023-10-08T07:35:23;96328.44;;;18.29;56.52
15007;BME280;7599;50.748;13.142;2023-10-08T07:38:26;96309.72;;;18.27;56.57
15007;BME280;7599;50.748;13.142;2023-10-08T07:41:33;96328.78;;;18.27;56.43
15007;BME280;7599;50.748;13.142;2023-10-08T07:44:36;96336.94;;;18.27;56.43
15007;BME280;7599;50.748;13.142;2023-10-08T07:47:40;96336.50;;;18.25;56.52
15007;BME280;7599;50.748;13.142;2023-10-08T07:50:45;96358.09;;;18.18;56.45
15007;BME280;7599;50.748;13.142;2023-10-08T07:53:48;96372.66;;;18.26;56.89
15007;BME280;7599;50.748;13.142;2023-10-08T07:56:52;96371.78;;;18.22;56.78
15007;BME280;7599;50.748;13.142;2023-10-08T07:59:58;96355.28;;;18.15;56.91
15007;BME280;7599;50.748;13.142;2023-10-08T08:03:19;96364.06;;;18.24;56.92
15007;BME280;7599;50.748;13.142;2023-10-08T08:06:22;96385.03;;;18.23;56.96
15007;BME280;7599;50.748;13.142;2023-10-08T08:09:27;96379.97;;;18.22;56.74
15007;BME280;7599;50.748;13.142;2023-10-08T08:12:31;96383.81;;;18.21;56.74
15007;BME280;7599;50.748;13.142;2023-10-08T08:15:34;96391.81;;;18.14;56.41
15007;BME280;7599;50.748;13.142;2023-10-08T08:18:42;96423.84;;;18.20;56.42
15007;BME280;7599;50.748;13.142;2023-10-08T08:21:45;96429.28;;;18.20;56.28
15007;BME280;7599;50.748;13.142;2023-10-08T08:24:48;96439.38;;;18.20;56.50
15007;BME280;7599;50.748;13.142;2023-10-08T08:28:00;96430.41;;;18.19;56.04
15007;BME280;7599;50.748;13.142;2023-10-08T08:31:07;96433.13;;;18.19;56.48
15007;BME280;7599;50.748;13.142;2023-10-08T08:34:14;96434.28;;;18.18;56.27
15007;BME280;7599;50.748;13.142;2023-10-08T08:37:21;96443.22;;;18.19;56.06
15007;BME280;7599;50.748;13.142;2023-10-08T08:40:27;96416.66;;;18.12;56.44
15007;BME280;7599;50.748;13.142;2023-10-08T08:43:32;96439.72;;;18.18;56.15
15007;BME280;7599;50.748;13.142;2023-10-08T08:46:37;96431.41;;;18.11;56.26
15007;BME280;7599;50.748;13.142;2023-10-08T08:49:42;96444.38;;;18.18;56.16
15007;BME280;7599;50.748;13.142;2023-10-08T08:52:45;96457.97;;;18.18;56.29
15007;BME280;7599;50.748;13.142;2023-10-08T08:55:49;96440.25;;;18.08;56.47
15007;BME280;7599;50.748;13.142;2023-10-08T08:58:53;96449.38;;;18.16;56.11
15007;BME280;7599;50.748;13.142;2023-10-08T09:01:58;96454.81;;;18.16;56.22
15007;BME280;7599;50.748;13.142;2023-10-08T09:05:01;96465.72;;;18.16;55.98
15007;BME280;7599;50.748;13.142;2023-10-08T09:08:14;96462.44;;;18.10;55.91
15007;BME280;7599;50.748;13.142;2023-10-08T09:11:20;96466.81;;;18.15;56.38
15007;BME280;7599;50.748;13.142;2023-10-08T09:14:25;96471.47;;;18.14;56.22
15007;BME280;7599;50.748;13.142;2023-10-08T09:17:28;96464.47;;;18.13;56.36
15007;BME280;7599;50.748;13.142;2023-10-08T09:20:31;96467.09;;;18.09;56.23
15007;BME280;7599;50.748;13.142;2023-10-08T09:23:39;96483.50;;;18.13;55.75
15007;BME280;7599;50.748;13.142;2023-10-08T09:26:45;96476.66;;;18.03;56.24
15007;BME280;7599;50.748;13.142;2023-10-08T09:29:54;96488.84;;;18.09;55.92
15007;BME280;7599;50.748;13.142;2023-10-08T09:32:57;96501.31;;;18.11;56.09
15007;BME280;7599;50.748;13.142;2023-10-08T09:36:01;96502.03;;;18.07;56.30
15007;BME280;7599;50.748;13.142;2023-10-08T09:39:07;96492.63;;;18.05;55.75
15007;BME280;7599;50.748;13.142;2023-10-08T09:42:18;96499.72;;;18.09;55.94
15007;BME280;7599;50.748;13.142;2023-10-08T09:45:25;96505.44;;;18.04;55.75
15007;BME280;7599;50.748;13.142;2023-10-08T09:48:30;96502.91;;;18.12;55.59
15007;BME280;7599;50.748;13.142;2023-10-08T09:51:37;96519.22;;;18.12;55.85
15007;BME280;7599;50.748;13.142;2023-10-08T09:54:43;96529.31;;;18.11;55.98
15007;BME280;7599;50.748;13.142;2023-10-08T09:57:48;96504.66;;;18.04;56.02
15007;BME280;7599;50.748;13.142;2023-10-08T10:00:56;96511.22;;;18.03;55.76
15007;BME280;7599;50.748;13.142;2023-10-08T10:03:59;96533.94;;;18.11;55.89
15007;BME280;7599;50.748;13.142;2023-10-08T10:07:09;96522.28;;;18.10;55.86
15007;BME280;7599;50.748;13.142;2023-10-08T10:10:26;96512.19;;;18.11;55.54
15007;BME280;7599;50.748;13.142;2023-10-08T10:13:34;96526.94;;;18.09;55.48
15007;BME280;7599;50.748;13.142;2023-10-08T10:16:48;96519.72;;;18.01;56.09
15007;BME280;7599;50.748;13.142;2023-10-08T10:19:53;96530.69;;;18.05;55.91
15007;BME280;7599;50.748;13.142;2023-10-08T10:22:56;96532.63;;;18.04;55.42
15007;BME280;7599;50.748;13.142;2023-10-08T10:26:01;96534.66;;;18.07;55.60
15007;BME280;7599;50.748;13.142;2023-10-08T10:29:22;96524.25;;;17.97;55.63
15007;BME280;7599;50.748;13.142;2023-10-08T10:32:29;96552.19;;;18.10;55.43
15007;BME280;7599;50.748;13.142;2023-10-08T10:35:32;96558.78;;;18.09;55.67
15007;BME280;7599;50.748;13.142;2023-10-08T10:38:41;96566.16;;;18.08;55.55
15007;BME280;7599;50.748;13.142;2023-10-08T10:41:44;96561.88;;;18.07;55.50
15007;BME280;7599;50.748;13.142;2023-10-08T10:44:47;96551.66;;;18.04;55.75
15007;BME280;7599;50.748;13.142;2023-10-08T10:47:54;96539.13;;;18.00;55.72
15007;BME280;7599;50.748;13.142;2023-10-08T10:51:11;96551.41;;;18.09;55.66
15007;BME280;7599;50.748;13.142;2023-10-08T10:54:20;96560.03;;;18.12;55.30
15007;BME280;7599;50.748;13.142;2023-10-08T10:57:25;96562.41;;;18.13;55.52
15007;BME280;7599;50.748;13.142;2023-10-08T11:00:36;96569.09;;;18.16;55.45
15007;BME280;7599;50.748;13.142;2023-10-08T11:03:59;96561.25;;;18.14;55.20
15007;BME280;7599;50.748;13.142;2023-10-08T11:07:02;96573.03;;;18.18;55.41
15007;BME280;7599;50.748;13.142;2023-10-08T11:10:09;96561.63;;;18.13;55.06
15007;BME280;7599;50.748;13.142;2023-10-08T11:13:19;96570.78;;;18.20;55.49
15007;BME280;7599;50.748;13.142;2023-10-08T11:16:23;96558.63;;;18.18;55.18
15007;BME280;7599;50.748;13.142;2023-10-08T11:19:27;96560.56;;;18.17;54.94
15007;BME280;7599;50.748;13.142;2023-10-08T11:22:40;96564.53;;;18.20;54.99
15007;BME280;7599;50.748;13.142;2023-10-08T11:25:52;96560.13;;;18.15;55.17
15007;BME280;7599;50.748;13.142;2023-10-08T11:28:55;96559.88;;;18.20;55.20
15007;BME280;7599;50.748;13.142;2023-10-08T11:31:57;96559.28;;;18.27;55.15
15007;BME280;7599;50.748;13.142;2023-10-08T11:35:04;96546.63;;;18.19;54.76
15007;BME280;7599;50.748;13.142;2023-10-08T11:38:17;96559.53;;;18.22;54.92
15007;BME280;7599;50.748;13.142;2023-10-08T11:41:23;96548.81;;;18.13;54.72
15007;BME280;7599;50.748;13.142;2023-10-08T11:44:29;96554.00;;;18.18;55.03
15007;BME280;7599;50.748;13.142;2023-10-08T11:47:32;96568.47;;;18.22;54.92
15007;BME280;7599;50.748;13.142;2023-10-08T11:50:38;96578.94;;;18.20;54.84
15007;BME280;7599;50.748;13.142;2023-10-08T11:53:42;96557.97;;;18.21;55.09
15007;BME280;7599;50.748;13.142;2023-10-08T11:56:46;96553.94;;;18.30;54.38
15007;BME280;7599;50.748;13.142;2023-10-08T11:59:48;96545.50;;;18.20;55.00
15007;BME280;7599;50.748;13.142;2023-10-08T12:02:54;96553.94;;;18.30;54.80
15007;BME280;7599;50.748;13.142;2023-10-08T12:05:58;96552.78;;;18.31;54.65
15007;BME280;7599;50.748;13.142;2023-10-08T12:09:01;96544.72;;;18.35;54.47
15007;BME280;7599;50.748;13.142;2023-10-08T12:12:13;96532.34;;;18.38;54.62
15007;BME280;7599;50.748;13.142;2023-10-08T12:15:17;96541.31;;;18.38;54.52
15007;BME280;7599;50.748;13.142;2023-10-08T12:18:21;96541.16;;;18.47;54.39
15007;BME280;7599;50.748;13.142;2023-10-08T12:21:28;96520.31;;;18.39;53.90
15007;BME280;7599;50.748;13.142;2023-10-08T12:24:32;96527.44;;;18.43;53.95
15007;BME280;7599;50.748;13.142;2023-10-08T12:27:34;96537.81;;;18.53;54.33
15007;BME280;7599;50.748;13.142;2023-10-08T12:30:37;96539.47;;;18.58;53.97
15007;BME280;7599;50.748;13.142;2023-10-08T12:33:44;96540.03;;;18.64;53.51
15007;BME280;7599;50.748;13.142;2023-10-08T12:36:48;96545.91;;;18.66;53.92
15007;BME280;7599;50.748;13.142;2023-10-08T12:39:52;96544.50;;;18.72;53.47
15007;BME280;7599;50.748;13.142;2023-10-08T12:43:02;96539.44;;;18.70;53.57
15007;BME280;7599;50.748;13.142;2023-10-08T12:46:05;96543.88;;;18.63;53.83
15007;BME280;7599;50.748;13.142;2023-10-08T12:49:12;96538.34;;;18.59;53.72
15007;BME280;7599;50.748;13.142;2023-10-08T12:52:16;96533.59;;;18.56;54.09
15007;BME280;7599;50.748;13.142;2023-10-08T12:55:19;96517.44;;;18.47;54.08
15007;BME280;7599;50.748;13.142;2023-10-08T12:58:25;96515.50;;;18.48;53.68
15007;BME280;7599;50.748;13.142;2023-10-08T13:01:31;96528.69;;;18.62;53.86
15007;BME280;7599;50.748;13.142;2023-10-08T13:04:33;96519.72;;;18.61;53.94
15007;BME280;7599;50.748;13.142;2023-10-08T13:07:43;96516.38;;;18.52;53.95
15007;BME280;7599;50.748;13.142;2023-10-08T13:10:47;96524.38;;;18.61;53.85
15007;BME280;7599;50.748;13.142;2023-10-08T13:13:51;96523.03;;;18.54;54.32
15007;BME280;7599;50.748;13.142;2023-10-08T13:16:54;96513.94;;;18.47;53.66
15007;BME280;7599;50.748;13.142;2023-10-08T13:19:57;96513.47;;;18.45;54.10
15007;BME280;7599;50.748;13.142;2023-10-08T13:23:01;96522.53;;;18.49;54.42
15007;BME280;7599;50.748;13.142;2023-10-08T13:26:05;96515.88;;;18.46;54.28
15007;BME280;7599;50.748;13.142;2023-10-08T13:29:09;96518.50;;;18.43;54.19
15007;BME280;7599;50.748;13.142;2023-10-08T13:32:12;96521.53;;;18.41;54.12
15007;BME280;7599;50.748;13.142;2023-10-08T13:35:19;96496.53;;;18.36;54.26
15007;BME280;7599;50.748;13.142;2023-10-08T13:38:23;96487.75;;;18.26;54.09
15007;BME280;7599;50.748;13.142;2023-10-08T13:41:25;96502.59;;;18.29;54.58
15007;BME280;7599;50.748;13.142;2023-10-08T13:44:30;96507.56;;;18.27;54.50
15007;BME280;7599;50.748;13.142;2023-10-08T13:47:33;96514.00;;;18.34;54.54
15007;BME280;7599;50.748;13.142;2023-10-08T13:50:36;96505.63;;;18.27;54.39
15007;BME280;7599;50.748;13.142;2023-10-08T13:53:40;96522.06;;;18.31;54.69
15007;BME280;7599;50.748;13.142;2023-10-08T13:56:46;96538.50;;;18.34;54.52
15007;BME280;7599;50.748;13.142;2023-10-08T13:59:50;96533.06;;;18.34;54.75
15007;BME280;7599;50.748;13.142;2023-10-08T14:02:53;96533.75;;;18.31;54.32
15007;BME280;7599;50.748;13.142;2023-10-08T14:05:56;96527.06;;;18.29;54.70
15007;BME280;7599;50.748;13.142;2023-10-08T14:09:06;96521.38;;;18.34;54.42
15007;BME280;7599;50.748;13.142;2023-10-08T14:12:11;96526.03;;;18.33;54.57
15007;BME280;7599;50.748;13.142;2023-10-08T14:15:15;96529.53;;;18.34;54.46
15007;BME280;7599;50.748;13.142;2023-10-08T14:18:18;96511.81;;;18.24;54.69
15007;BME280;7599;50.748;13.142;2023-10-08T14:21:28;96518.28;;;18.36;54.73
15007;BME280;7599;50.748;13.142;2023-10-08T14:24:39;96515.22;;;18.37;54.29
15007;BME280;7599;50.748;13.142;2023-10-08T14:27:42;96510.59;;;18.38;54.39
15007;BME280;7599;50.748;13.142;2023-10-08T14:30:54;96497.47;;;18.27;54.41
15007;BME280;7599;50.748;13.142;2023-10-08T14:33:58;96480.63;;;18.22;54.56
15007;BME280;7599;50.748;13.142;2023-10-08T14:37:20;96510.91;;;18.36;54.45
15007;BME280;7599;50.748;13.142;2023-10-08T14:40:42;96503.72;;;18.28;54.53
15007;BME280;7599;50.748;13.142;2023-10-08T14:44:02;96513.22;;;18.34;54.78
15007;BME280;7599;50.748;13.142;2023-10-08T14:47:05;96506.53;;;18.31;54.53
15007;BME280;7599;50.748;13.142;2023-10-08T14:50:08;96496.00;;;18.30;54.58
15007;BME280;7599;50.748;13.142;2023-10-08T14:53:17;96504.06;;;18.26;54.34
15007;BME280;7599;50.748;13.142;2023-10-08T14:56:21;96521.81;;;18.36;54.45
15007;BME280;7599;50.748;13.142;2023-10-08T14:59:25;96521.38;;;18.34;54.84
15007;BME280;7599;50.748;13.142;2023-10-08T15:02:29;96515.75;;;18.27;54.75
15007;BME280;7599;50.748;13.142;2023-10-08T15:05:32;96506.34;;;18.24;54.50
15007;BME280;7599;50.748;13.142;2023-10-08T15:08:35;96501.53;;;18.33;54.78
15007;BME280;7599;50.748;13.142;2023-10-08T15:11:39;96494.44;;;18.29;54.53
15007;BME280;7599;50.748;13.142;2023-10-08T15:14:42;96509.34;;;18.35;54.54
15007;BME280;7599;50.748;13.142;2023-10-08T15:17:47;96500.09;;;18.24;54.58
15007;BME280;7599;50.748;13.142;2023-10-08T15:20:51;96514.25;;;18.29;54.22
15007;BME280;7599;50.748;13.142;2023-10-08T15:23:55;96514.69;;;18.31;54.53
15007;BME280;7599;50.748;13.142;2023-10-08T15:26:59;96520.91;;;18.32;54.34
15007;BME280;7599;50.748;13.142;2023-10-08T15:30:02;96522.31;;;18.26;54.94
15007;BME280;7599;50.748;13.142;2023-10-08T15:33:06;96528.19;;;18.28;54.72
15007;BME280;7599;50.748;13.142;2023-10-08T15:36:09;96547.25;;;18.28;54.94
15007;BME280;7599;50.748;13.142;2023-10-08T15:39:12;96542.63;;;18.28;55.13
15007;BME280;7599;50.748;13.142;2023-10-08T15:42:23;96543.41;;;18.29;54.62
15007;BME280;7599;50.748;13.142;2023-10-08T15:45:26;96557.34;;;18.27;55.13
15007;BME280;7599;50.748;13.142;2023-10-08T15:48:29;96556.91;;;18.25;55.25
15007;BME280;7599;50.748;13.142;2023-10-08T15:51:32;96549.78;;;18.21;55.06
15007;BME280;7599;50.748;13.142;2023-10-08T15:54:35;96553.72;;;18.23;55.43
15007;BME280;7599;50.748;13.142;2023-10-08T15:57:40;96549.06;;;18.24;55.16
15007;BME280;7599;50.748;13.142;2023-10-08T16:00:43;96549.44;;;18.22;55.16
15007;BME280;7599;50.748;13.142;2023-10-08T16:03:46;96522.38;;;18.14;55.09
15007;BME280;7599;50.748;13.142;2023-10-08T16:06:49;96527.13;;;18.17;55.01
15007;BME280;7599;50.748;13.142;2023-10-08T16:09:52;96541.28;;;18.22;55.29
15007;BME280;7599;50.748;13.142;2023-10-08T16:12:56;96524.94;;;18.22;55.28
15007;BME280;7599;50.748;13.142;2023-10-08T16:15:58;96524.94;;;18.22;54.89
15007;BME280;7599;50.748;13.142;2023-10-08T16:19:01;96540.91;;;18.24;55.02
15007;BME280;7599;50.748;13.142;2023-10-08T16:22:04;96531.44;;;18.18;55.17
15007;BME280;7599;50.748;13.142;2023-10-08T16:25:07;96533.25;;;18.14;55.26
15007;BME280;7599;50.748;13.142;2023-10-08T16:28:17;96561.91;;;18.23;55.43
15007;BME280;7599;50.748;13.142;2023-10-08T16:31:20;96564.63;;;18.23;55.46